F\v Tenia — FPMH — position and weather

sailwx.info

Track history (hours):
 
Tides and Currents Weather Stations Pressure Air Temp Water Temp Dewpoint Dewpoint Depression Visibility Wind Speed Wind Dir Waves Ship Positions

F\v Tenia

Last reported at 2014-Oct-12 11:12 UTC. Time now 2014-Oct-24 21:28 UTC.
Position N 47°36' W 003°25'.
Warning: this ship's position is 12 days out of date.

Length 22 m; draft 4 m.

Type: Fishing. MMSI: 227575000.

Date/timePositionNaut miles runAvg speedWind from/ knotsBaromVisibWave heightAir tempDewpointWater temp
2014-Oct-12 11:12N 47°36' W 003°25'6 8.9
2014-Oct-12 10:34N 47°41' W 003°22'3 2.7
2014-Oct-12 09:34N 47°44' W 003°22'0 0.0
2014-Oct-12 08:33N 47°44' W 003°22'0 0.1
2014-Oct-12 07:33N 47°44' W 003°22'0 0.1
2014-Oct-12 06:34N 47°44' W 003°22'0 0.0
2014-Oct-12 05:34N 47°44' W 003°22'0 0.0
2014-Oct-12 04:33N 47°44' W 003°22'0 0.0
2014-Oct-12 03:34N 47°44' W 003°22'7 6.8
2014-Oct-12 02:33N 47°37' W 003°23'  
2014-Oct-05 10:21N 47°36' W 003°24'6 8.1
2014-Oct-05 09:33N 47°42' W 003°22'2 1.7
2014-Oct-05 08:33N 47°44' W 003°22'0 0.0
2014-Oct-05 07:33N 47°44' W 003°22'0 0.1
2014-Oct-05 06:34N 47°44' W 003°22'0 0.1
2014-Oct-05 05:34N 47°44' W 003°22'0 0.0
2014-Oct-05 04:33N 47°44' W 003°22'2 2.4
2014-Oct-05 03:34N 47°41' W 003°22'6 6.1
2014-Oct-05 02:33N 47°35' W 003°25'  
Track history (hours):
 
Tides and Currents Weather Stations Pressure Air Temp Water Temp Dewpoint Dewpoint Depression Visibility Wind Speed Wind Dir Waves Ship Positions

F\v Tenia

Last reported at 2014-Oct-12 11:12 UTC. Time now 2014-Oct-24 21:28 UTC.
Position N 47°36' W 003°25'.
Warning: this ship's position is 12 days out of date.

Length 22 m; draft 4 m.

Type: Fishing. MMSI: 227575000.

Date/timePositionNaut miles runAvg speedWind from/ knotsBaromVisibWave heightAir tempDewpointWater temp
2014-Oct-12 11:12N 47°36' W 003°25'6 8.9
2014-Oct-12 10:34N 47°41' W 003°22'3 2.7
2014-Oct-12 09:34N 47°44' W 003°22'0 0.0
2014-Oct-12 08:33N 47°44' W 003°22'0 0.1
2014-Oct-12 07:33N 47°44' W 003°22'0 0.1
2014-Oct-12 06:34N 47°44' W 003°22'0 0.0
2014-Oct-12 05:34N 47°44' W 003°22'0 0.0
2014-Oct-12 04:33N 47°44' W 003°22'0 0.0
2014-Oct-12 03:34N 47°44' W 003°22'7 6.8
2014-Oct-12 02:33N 47°37' W 003°23'  
2014-Oct-05 10:21N 47°36' W 003°24'6 8.1
2014-Oct-05 09:33N 47°42' W 003°22'2 1.7
2014-Oct-05 08:33N 47°44' W 003°22'0 0.0
2014-Oct-05 07:33N 47°44' W 003°22'0 0.1
2014-Oct-05 06:34N 47°44' W 003°22'0 0.1
2014-Oct-05 05:34N 47°44' W 003°22'0 0.0
2014-Oct-05 04:33N 47°44' W 003°22'2 2.4
2014-Oct-05 03:34N 47°41' W 003°22'6 6.1
2014-Oct-05 02:33N 47°35' W 003°25'  

Dump ship's entire track history